Time;durP1;ratioP1;P1;durP2;ratioP2;P2;SDS_P1;SDS_P2;PMS_P1;PMS_P2;Temp;Humidity;BMP_temperature;BMP_pressure;BME280_temperature;BME280_humidity;BME280_pressure;Samples;Min_cycle;Max_cycle;Signal;HPM_P1;HPM_P2
2021/07/19 00:00:53;;;;;;;4.60;3.17;;;20.20;99.90;;;;;;2105823;28;20089;-70
2021/07/19 00:01:55;;;;;;;8.05;3.65;;;20.20;99.90;;;;;;2105873;28;20020;-70
2021/07/19 00:02:56;;;;;;;4.82;3.00;;;20.20;99.90;;;;;;2105100;28;20506;-70
2021/07/19 00:03:59;;;;;;;4.93;3.35;;;20.20;99.90;;;;;;2105756;28;20372;-70
2021/07/19 00:04:59;;;;;;;3.80;3.10;;;20.20;99.90;;;;;;2112874;28;20470;-70
2021/07/19 00:06:00;;;;;;;3.47;3.10;;;20.10;99.90;;;;;;2114364;28;20410;-70
2021/07/19 00:07:00;;;;;;;7.63;4.05;;;20.20;99.90;;;;;;2113990;28;20375;-70
2021/07/19 00:08:01;;;;;;;3.78;2.88;;;20.10;99.90;;;;;;2114314;28;20043;-70
2021/07/19 00:09:02;;;;;;;4.13;2.92;;;20.10;99.90;;;;;;2114097;28;20073;-70
2021/07/19 00:10:09;;;;;;;5.75;3.25;;;20.10;99.90;;;;;;2114508;28;20035;-70
2021/07/19 00:11:09;;;;;;;2.97;2.70;;;20.10;99.90;;;;;;2113198;28;20024;-70
2021/07/19 00:12:12;;;;;;;5.88;3.28;;;20.10;99.90;;;;;;2113471;28;20015;-71
2021/07/19 00:13:13;;;;;;;5.15;3.40;;;20.10;99.90;;;;;;2113485;28;20024;-70
2021/07/19 00:14:14;;;;;;;4.55;3.10;;;20.10;99.90;;;;;;2109568;28;20044;-70
2021/07/19 00:15:19;;;;;;;4.80;3.05;;;20.10;99.90;;;;;;2113987;28;20032;-70
2021/07/19 00:16:19;;;;;;;6.60;3.42;;;20.10;99.90;;;;;;2114373;28;20103;-70
2021/07/19 00:17:20;;;;;;;3.95;3.15;;;20.10;99.90;;;;;;2114048;28;20039;-70
2021/07/19 00:18:21;;;;;;;5.60;2.92;;;20.00;99.90;;;;;;2114481;28;20016;-70
2021/07/19 00:19:22;;;;;;;3.85;3.03;;;20.00;99.90;;;;;;2114088;28;20031;-70
2021/07/19 00:20:23;;;;;;;7.40;3.10;;;20.00;99.90;;;;;;2114312;28;20031;-70
2021/07/19 00:21:24;;;;;;;4.60;2.90;;;20.00;99.90;;;;;;2113755;28;20047;-70
2021/07/19 00:22:25;;;;;;;3.72;2.78;;;20.00;99.90;;;;;;2114258;28;20030;-70
2021/07/19 00:23:26;;;;;;;5.95;3.22;;;20.00;99.90;;;;;;2113358;28;20110;-70
2021/07/19 00:24:27;;;;;;;3.55;2.83;;;20.00;99.90;;;;;;2105607;28;20024;-71
2021/07/19 00:25:28;;;;;;;6.80;3.47;;;20.00;99.90;;;;;;2105526;28;20456;-71
2021/07/19 00:26:29;;;;;;;3.85;3.38;;;19.90;99.90;;;;;;2105775;28;20032;-71
2021/07/19 00:27:30;;;;;;;3.65;3.17;;;19.90;99.90;;;;;;2105701;28;20024;-71
2021/07/19 00:28:30;;;;;;;4.07;3.03;;;19.90;99.90;;;;;;2105872;28;20016;-70
2021/07/19 00:29:31;;;;;;;6.18;3.40;;;19.90;99.90;;;;;;2105792;28;20020;-70
2021/07/19 00:30:33;;;;;;;4.18;3.60;;;19.90;99.90;;;;;;2105875;28;20081;-70
2021/07/19 00:31:34;;;;;;;4.10;3.25;;;19.90;99.90;;;;;;2105419;28;20405;-70
2021/07/19 00:32:35;;;;;;;4.95;3.38;;;20.00;99.90;;;;;;2105399;28;20021;-70
2021/07/19 00:33:36;;;;;;;6.10;2.72;;;19.90;99.90;;;;;;2105377;28;20782;-70
2021/07/19 00:34:36;;;;;;;6.25;3.15;;;19.90;99.90;;;;;;2105748;28;20360;-70
2021/07/19 00:35:37;;;;;;;6.78;3.58;;;19.90;99.90;;;;;;2105785;28;20100;-70
2021/07/19 00:36:38;;;;;;;5.03;3.10;;;19.90;99.90;;;;;;2105593;28;20030;-70
2021/07/19 00:37:39;;;;;;;3.92;3.20;;;19.90;99.90;;;;;;2107199;28;20027;-70
2021/07/19 00:38:39;;;;;;;4.70;3.30;;;19.90;99.90;;;;;;2107306;28;20032;-70
2021/07/19 00:39:40;;;;;;;4.00;2.95;;;19.90;99.90;;;;;;2107400;28;20533;-70
2021/07/19 00:40:40;;;;;;;6.45;3.42;;;19.90;99.90;;;;;;2107305;28;20035;-70
2021/07/19 00:41:41;;;;;;;3.80;2.97;;;19.80;99.90;;;;;;2106985;28;20659;-70
2021/07/19 00:42:44;;;;;;;3.65;2.55;;;19.80;99.90;;;;;;2107017;28;20084;-70
2021/07/19 00:43:44;;;;;;;6.13;3.00;;;19.80;99.90;;;;;;2107015;28;20024;-70
2021/07/19 00:44:45;;;;;;;4.35;3.15;;;19.80;99.90;;;;;;2107346;28;20074;-70
2021/07/19 00:45:45;;;;;;;4.40;3.53;;;19.70;99.90;;;;;;2115792;28;20042;-70
2021/07/19 00:46:55;;;;;;;4.57;3.08;;;19.80;99.90;;;;;;2115533;28;20074;-70
2021/07/19 00:47:57;;;;;;;4.65;3.13;;;19.70;99.90;;;;;;2110423;28;20016;-70
2021/07/19 00:48:57;;;;;;;5.18;3.58;;;19.70;99.90;;;;;;2107139;28;20084;-70
2021/07/19 00:49:58;;;;;;;4.72;2.92;;;19.70;99.90;;;;;;2107430;28;20081;-70
2021/07/19 00:50:59;;;;;;;6.70;3.90;;;19.70;99.90;;;;;;2107262;28;20020;-70
2021/07/19 00:52:00;;;;;;;2.95;2.63;;;19.60;99.90;;;;;;2106868;28;20049;-70
2021/07/19 00:53:02;;;;;;;3.67;3.20;;;19.60;99.90;;;;;;2106859;28;20028;-70
2021/07/19 00:54:04;;;;;;;4.75;3.28;;;19.60;99.90;;;;;;2106314;28;20063;-70
2021/07/19 00:55:07;;;;;;;3.65;3.13;;;19.60;99.90;;;;;;2111441;28;20058;-70
2021/07/19 00:56:10;;;;;;;5.93;3.17;;;19.60;99.90;;;;;;2110779;28;20072;-70
2021/07/19 00:57:14;;;;;;;10.80;4.43;;;19.60;99.90;;;;;;2107285;28;20024;-70
2021/07/19 00:58:17;;;;;;;4.75;3.35;;;19.60;99.90;;;;;;2107145;28;20036;-70
2021/07/19 00:59:20;;;;;;;3.67;3.38;;;19.50;99.90;;;;;;2107127;28;20028;-70
2021/07/19 01:00:21;;;;;;;4.00;3.20;;;19.50;99.90;;;;;;2107127;28;20024;-70
2021/07/19 01:01:23;;;;;;;4.32;3.03;;;19.50;99.90;;;;;;2106849;28;20024;-70
2021/07/19 01:02:25;;;;;;;5.20;3.40;;;19.50;99.90;;;;;;2107257;28;20100;-70
2021/07/19 01:03:26;;;;;;;6.07;3.72;;;19.50;99.90;;;;;;2106606;28;20040;-70
2021/07/19 01:04:30;;;;;;;4.80;3.13;;;19.50;99.90;;;;;;2109910;28;20031;-70
2021/07/19 01:05:31;;;;;;;5.03;3.58;;;19.50;99.90;;;;;;2115494;28;20107;-70
2021/07/19 01:06:33;;;;;;;7.10;4.10;;;19.40;99.90;;;;;;2115517;28;20023;-70
2021/07/19 01:07:36;;;;;;;4.07;3.50;;;19.40;99.90;;;;;;2115462;28;20019;-70
2021/07/19 01:08:39;;;;;;;3.63;2.92;;;19.40;99.90;;;;;;2115855;28;20122;-70
2021/07/19 01:09:40;;;;;;;4.78;3.17;;;19.40;99.90;;;;;;2115426;28;20055;-70
2021/07/19 01:10:40;;;;;;;5.05;3.88;;;19.40;99.90;;;;;;2115659;27;20023;-70
2021/07/19 01:11:41;;;;;;;4.15;3.20;;;19.40;99.90;;;;;;2114886;28;20035;-70
2021/07/19 01:12:44;;;;;;;7.53;3.35;;;19.40;99.90;;;;;;2115434;28;20035;-70
2021/07/19 01:13:45;;;;;;;4.95;3.55;;;19.40;99.90;;;;;;2113099;28;20035;-70
2021/07/19 01:14:45;;;;;;;5.18;3.97;;;19.30;99.90;;;;;;2107066;28;20118;-70
2021/07/19 01:15:46;;;;;;;4.20;3.28;;;19.30;99.90;;;;;;2107166;28;22284;-71
2021/07/19 01:16:46;;;;;;;3.30;3.00;;;19.30;99.90;;;;;;2107277;28;20028;-71
2021/07/19 01:17:47;;;;;;;4.10;3.65;;;19.30;99.90;;;;;;2107151;28;20024;-70
2021/07/19 01:18:48;;;;;;;7.03;3.50;;;19.30;99.90;;;;;;2107107;28;20112;-70
2021/07/19 01:19:50;;;;;;;4.20;3.65;;;19.30;99.90;;;;;;2106847;28;20562;-70
2021/07/19 01:21:02;;;;;;;5.75;4.07;;;19.30;99.90;;;;;;2107009;28;20521;-70
2021/07/19 01:22:11;;;;;;;4.28;3.33;;;19.20;99.90;;;;;;2106683;28;20036;-70
2021/07/19 01:23:46;;;;;;;6.50;3.65;;;19.20;99.90;;;;;;2106893;28;20091;-70
2021/07/19 01:25:18;;;;;;;3.58;3.28;;;19.10;99.90;;;;;;2098804;28;20219;-70
2021/07/19 01:26:56;;;;;;;5.93;3.30;;;19.10;99.90;;;;;;2098540;28;20020;-71
2021/07/19 01:28:06;;;;;;;3.15;2.85;;;19.10;99.90;;;;;;2098754;28;20461;-70
2021/07/19 01:29:08;;;;;;;6.50;3.05;;;19.00;99.90;;;;;;2104466;28;20478;-70
2021/07/19 01:30:09;;;;;;;6.00;3.80;;;19.00;99.90;;;;;;2106902;28;20024;-70
2021/07/19 01:31:16;;;;;;;6.55;4.13;;;19.00;99.90;;;;;;2106834;28;20028;-70
2021/07/19 01:32:19;;;;;;;4.65;3.60;;;19.00;99.90;;;;;;2106548;28;20034;-70
2021/07/19 01:33:21;;;;;;;5.95;3.42;;;19.00;99.90;;;;;;2106507;28;20097;-70
2021/07/19 01:34:24;;;;;;;4.65;3.60;;;19.00;99.90;;;;;;2106354;28;20028;-70
2021/07/19 01:35:25;;;;;;;3.72;3.42;;;19.00;99.90;;;;;;2106961;28;20039;-70
2021/07/19 01:36:32;;;;;;;5.40;3.70;;;19.00;99.90;;;;;;2106842;28;20028;-70
2021/07/19 01:37:34;;;;;;;4.72;3.40;;;18.90;99.90;;;;;;2107033;28;20111;-70
2021/07/19 01:38:35;;;;;;;6.85;3.20;;;18.90;99.90;;;;;;2106825;28;20028;-70
2021/07/19 01:39:37;;;;;;;5.60;3.63;;;18.90;99.90;;;;;;2107114;28;20055;-71
2021/07/19 01:40:39;;;;;;;7.22;3.85;;;18.90;99.90;;;;;;2106617;28;20038;-71
2021/07/19 01:41:40;;;;;;;5.13;3.65;;;18.90;99.90;;;;;;2106877;28;20027;-71
2021/07/19 01:42:42;;;;;;;8.50;4.43;;;18.90;99.90;;;;;;2105926;28;20024;-71
2021/07/19 01:43:45;;;;;;;6.90;4.03;;;18.90;99.90;;;;;;2112281;28;20015;-71
2021/07/19 01:44:47;;;;;;;4.88;4.18;;;18.90;99.90;;;;;;2114336;28;20499;-71
2021/07/19 01:45:49;;;;;;;4.22;3.78;;;18.90;99.90;;;;;;2114786;28;20015;-71
2021/07/19 01:46:50;;;;;;;5.72;3.90;;;18.80;99.90;;;;;;2115123;28;20020;-71
2021/07/19 01:47:51;;;;;;;4.68;3.85;;;18.80;99.90;;;;;;2110412;28;20015;-71
2021/07/19 01:48:52;;;;;;;5.97;4.20;;;18.80;99.90;;;;;;2105718;28;20058;-71
2021/07/19 01:49:54;;;;;;;4.88;3.83;;;18.80;99.90;;;;;;2106914;28;20051;-71
2021/07/19 01:50:55;;;;;;;4.95;3.85;;;18.80;99.90;;;;;;2106531;28;20021;-71
2021/07/19 01:51:56;;;;;;;5.05;4.07;;;18.80;99.90;;;;;;2106708;28;20017;-71
2021/07/19 01:52:58;;;;;;;5.57;4.65;;;18.80;99.90;;;;;;2106241;28;20103;-71
2021/07/19 01:54:00;;;;;;;6.32;4.07;;;18.80;99.90;;;;;;2106940;28;20012;-71
2021/07/19 01:55:02;;;;;;;6.65;4.43;;;18.80;99.90;;;;;;2106527;28;20099;-71
2021/07/19 01:56:05;;;;;;;10.55;4.75;;;18.70;99.90;;;;;;2106868;28;20348;-71
2021/07/19 01:57:07;;;;;;;5.20;3.90;;;18.80;99.90;;;;;;2106706;28;20020;-70
2021/07/19 01:58:07;;;;;;;6.88;4.80;;;18.80;99.90;;;;;;2102754;28;20089;-71
2021/07/19 01:59:08;;;;;;;5.35;4.40;;;18.80;99.90;;;;;;2106783;28;20024;-71
2021/07/19 02:00:09;;;;;;;4.82;3.42;;;18.70;99.90;;;;;;2107381;28;20028;-71
2021/07/19 02:01:10;;;;;;;5.43;3.83;;;18.70;99.90;;;;;;2112835;28;20479;-71
2021/07/19 02:02:11;;;;;;;5.95;4.05;;;18.70;99.90;;;;;;2106109;28;20421;-71
2021/07/19 02:03:12;;;;;;;5.25;3.67;;;18.70;99.90;;;;;;2106325;28;20091;-70
2021/07/19 02:04:13;;;;;;;4.93;4.35;;;18.70;99.90;;;;;;2106629;28;20023;-70
2021/07/19 02:05:14;;;;;;;7.53;4.20;;;18.70;99.90;;;;;;2106765;28;20013;-70
2021/07/19 02:06:15;;;;;;;4.78;3.60;;;18.70;99.90;;;;;;2106533;28;20123;-70
2021/07/19 02:07:19;;;;;;;5.88;4.82;;;18.70;99.90;;;;;;2106639;28;20070;-70
2021/07/19 02:08:21;;;;;;;6.05;3.90;;;18.60;99.90;;;;;;2106724;28;20065;-70
2021/07/19 02:09:23;;;;;;;5.65;4.38;;;18.70;99.90;;;;;;2106587;28;20375;-70
2021/07/19 02:10:24;;;;;;;6.05;4.15;;;18.60;99.90;;;;;;2106620;28;20016;-70
2021/07/19 02:11:27;;;;;;;5.00;4.50;;;18.60;99.90;;;;;;2106317;28;20024;-70
2021/07/19 02:12:28;;;;;;;5.13;3.83;;;18.60;99.90;;;;;;2106273;28;20020;-70
2021/07/19 02:13:34;;;;;;;6.57;4.30;;;18.60;99.90;;;;;;2105520;28;20021;-70
2021/07/19 02:14:39;;;;;;;6.10;4.20;;;18.60;99.90;;;;;;2105983;28;20455;-70
2021/07/19 02:15:40;;;;;;;4.50;3.60;;;18.60;99.90;;;;;;2106560;28;20020;-70
2021/07/19 02:16:47;;;;;;;5.97;4.78;;;18.60;99.90;;;;;;2106515;28;20028;-71
2021/07/19 02:17:55;;;;;;;7.43;4.13;;;18.60;99.90;;;;;;2106759;28;20020;-71
2021/07/19 02:18:57;;;;;;;4.70;4.30;;;18.50;99.90;;;;;;2107760;28;20414;-71
2021/07/19 02:19:58;;;;;;;6.85;4.35;;;18.50;99.90;;;;;;2115120;28;20023;-71
2021/07/19 02:21:04;;;;;;;6.45;4.38;;;18.50;99.90;;;;;;2114501;28;20030;-71
2021/07/19 02:22:09;;;;;;;5.45;3.85;;;18.50;99.90;;;;;;2114956;28;20016;-71
2021/07/19 02:23:11;;;;;;;6.22;4.30;;;18.50;99.90;;;;;;2114618;28;20040;-71
2021/07/19 02:24:13;;;;;;;5.93;4.88;;;18.50;99.90;;;;;;2114729;28;20022;-71
2021/07/19 02:25:15;;;;;;;6.93;4.43;;;18.50;99.90;;;;;;2114813;28;20031;-71
2021/07/19 02:26:17;;;;;;;4.65;3.83;;;18.50;99.90;;;;;;2114710;28;20061;-71
2021/07/19 02:27:19;;;;;;;5.35;4.85;;;18.40;99.90;;;;;;2114873;28;20068;-71
2021/07/19 02:28:20;;;;;;;5.68;4.35;;;18.40;99.90;;;;;;2114843;28;20026;-71
2021/07/19 02:29:21;;;;;;;7.70;5.85;;;18.40;99.90;;;;;;2107087;28;20456;-71
2021/07/19 02:30:23;;;;;;;8.25;5.53;;;18.40;99.90;;;;;;2106698;28;20110;-71
2021/07/19 02:31:24;;;;;;;6.80;5.10;;;18.40;99.90;;;;;;2106201;28;20048;-71
2021/07/19 02:32:25;;;;;;;6.28;4.97;;;18.40;99.90;;;;;;2106464;28;20064;-71
2021/07/19 02:33:27;;;;;;;6.85;4.90;;;18.30;99.90;;;;;;2105993;28;20497;-71
2021/07/19 02:34:29;;;;;;;6.80;5.20;;;18.40;99.90;;;;;;2106535;28;20032;-71
2021/07/19 02:35:31;;;;;;;7.53;5.05;;;18.30;99.90;;;;;;2105566;28;20032;-71
2021/07/19 02:36:32;;;;;;;7.00;4.82;;;18.30;99.90;;;;;;2105745;28;20113;-71
2021/07/19 02:37:38;;;;;;;5.20;4.70;;;18.30;99.90;;;;;;2106141;28;20063;-71
2021/07/19 02:38:40;;;;;;;7.93;5.45;;;18.40;99.90;;;;;;2106208;28;20032;-71
2021/07/19 02:39:41;;;;;;;8.45;4.90;;;18.40;99.90;;;;;;2106231;28;20089;-71
2021/07/19 02:40:44;;;;;;;6.22;5.32;;;18.40;99.90;;;;;;2106240;28;20032;-71
2021/07/19 02:41:46;;;;;;;6.15;4.82;;;18.30;99.90;;;;;;2105856;28;20024;-71
2021/07/19 02:42:51;;;;;;;7.30;5.47;;;18.40;99.90;;;;;;2106125;28;20088;-71
2021/07/19 02:43:54;;;;;;;7.60;4.97;;;18.30;99.90;;;;;;2106221;28;20020;-71
2021/07/19 02:44:55;;;;;;;5.57;4.63;;;18.30;99.90;;;;;;2106367;28;20027;-71
2021/07/19 02:45:57;;;;;;;6.88;5.20;;;18.30;99.90;;;;;;2106035;28;20016;-71
2021/07/19 02:46:58;;;;;;;7.80;5.18;;;18.30;99.90;;;;;;2106530;28;20077;-71
2021/07/19 02:48:00;;;;;;;5.97;5.05;;;18.30;99.90;;;;;;2105947;28;20020;-71
2021/07/19 02:49:08;;;;;;;9.55;5.53;;;18.30;99.90;;;;;;2105481;28;20068;-70
2021/07/19 02:50:11;;;;;;;5.65;5.15;;;18.30;99.90;;;;;;2110287;28;20012;-70
2021/07/19 02:51:14;;;;;;;5.63;4.75;;;18.30;99.90;;;;;;2114748;28;20106;-71
2021/07/19 02:52:14;;;;;;;8.02;6.00;;;18.30;99.90;;;;;;2114452;28;20022;-71
2021/07/19 02:53:17;;;;;;;6.80;5.15;;;18.30;99.90;;;;;;2114329;28;20042;-71
2021/07/19 02:54:20;;;;;;;5.47;4.90;;;18.30;99.90;;;;;;2114446;28;20023;-70
2021/07/19 02:55:21;;;;;;;9.52;6.18;;;18.30;99.90;;;;;;2114184;28;20036;-70
2021/07/19 02:56:24;;;;;;;7.30;5.65;;;18.30;99.90;;;;;;2106960;28;20082;-71
2021/07/19 02:57:24;;;;;;;6.90;6.18;;;18.30;99.90;;;;;;2106302;28;20046;-71
2021/07/19 02:58:26;;;;;;;6.93;5.68;;;18.30;99.90;;;;;;2104143;28;20059;-71
2021/07/19 02:59:27;;;;;;;10.35;6.28;;;18.30;99.90;;;;;;2104784;28;20032;-71
2021/07/19 03:00:28;;;;;;;7.93;5.72;;;18.30;99.90;;;;;;2105768;28;20490;-71
2021/07/19 03:01:31;;;;;;;8.68;6.22;;;18.30;99.90;;;;;;2108974;28;20091;-71
2021/07/19 03:02:33;;;;;;;10.50;6.95;;;18.30;99.90;;;;;;2113970;28;20042;-71
2021/07/19 03:03:37;;;;;;;7.85;6.35;;;18.30;99.90;;;;;;2106306;28;20016;-71
2021/07/19 03:04:40;;;;;;;7.40;6.05;;;18.30;99.90;;;;;;2105943;28;20036;-71
2021/07/19 03:05:44;;;;;;;9.63;6.50;;;18.30;99.90;;;;;;2106286;28;20020;-71
2021/07/19 03:06:46;;;;;;;16.23;6.30;;;18.20;99.90;;;;;;2106096;28;20351;-71
2021/07/19 03:07:52;;;;;;;8.95;6.05;;;18.30;99.90;;;;;;2106239;28;20020;-71
2021/07/19 03:08:54;;;;;;;7.97;6.00;;;18.30;99.90;;;;;;2105684;28;20024;-71
2021/07/19 03:10:00;;;;;;;11.70;6.38;;;18.30;99.90;;;;;;2113931;28;20027;-71
2021/07/19 03:11:06;;;;;;;8.43;6.63;;;18.30;99.90;;;;;;2114321;28;20027;-71
2021/07/19 03:12:08;;;;;;;10.65;6.57;;;18.20;99.90;;;;;;2114431;28;20015;-71
2021/07/19 03:13:13;;;;;;;10.00;6.28;;;18.30;99.90;;;;;;2113226;28;20023;-71
2021/07/19 03:14:17;;;;;;;9.63;6.60;;;18.30;99.90;;;;;;2113940;28;20041;-71
2021/07/19 03:15:18;;;;;;;10.40;6.20;;;18.20;99.90;;;;;;2114517;28;20364;-70
2021/07/19 03:16:20;;;;;;;5.97;5.38;;;18.20;99.90;;;;;;2111559;28;20119;-70
2021/07/19 03:17:22;;;;;;;11.30;5.80;;;18.30;99.90;;;;;;2105933;28;20474;-70
2021/07/19 03:18:23;;;;;;;9.65;6.03;;;18.30;99.90;;;;;;2106232;28;20028;-70
2021/07/19 03:19:25;;;;;;;7.18;5.78;;;18.30;99.90;;;;;;2105669;28;20063;-71
2021/07/19 03:20:26;;;;;;;7.65;5.72;;;18.30;99.90;;;;;;2106257;28;20111;-70
2021/07/19 03:21:29;;;;;;;9.30;5.90;;;18.30;99.90;;;;;;2105768;28;20028;-71
2021/07/19 03:22:30;;;;;;;10.50;6.65;;;18.30;99.90;;;;;;2105930;28;20016;-71
2021/07/19 03:23:33;;;;;;;6.07;5.50;;;18.30;99.90;;;;;;2096641;28;20048;-71
2021/07/19 03:24:35;;;;;;;6.82;5.68;;;18.30;99.90;;;;;;2097186;28;20020;-71
2021/07/19 03:25:36;;;;;;;9.52;6.03;;;18.30;99.90;;;;;;2100468;28;20028;-71
2021/07/19 03:26:37;;;;;;;7.80;5.57;;;18.30;99.90;;;;;;2105957;28;20491;-71
2021/07/19 03:27:39;;;;;;;7.38;5.68;;;18.30;99.90;;;;;;2105823;28;20032;-71
2021/07/19 03:28:42;;;;;;;8.02;6.85;;;18.30;99.90;;;;;;2106088;28;20059;-70
2021/07/19 03:29:45;;;;;;;9.27;6.72;;;18.30;99.90;;;;;;2105625;28;20028;-70
2021/07/19 03:30:49;;;;;;;8.52;5.78;;;18.30;99.90;;;;;;2105524;28;20241;-70
2021/07/19 03:31:50;;;;;;;8.32;6.10;;;18.30;99.90;;;;;;2097118;28;20036;-71
2021/07/19 03:32:51;;;;;;;8.05;6.22;;;18.30;99.90;;;;;;2104847;28;20027;-71
2021/07/19 03:33:53;;;;;;;8.70;6.35;;;18.30;99.90;;;;;;2105136;28;20020;-71
2021/07/19 03:34:54;;;;;;;9.82;6.82;;;18.30;99.90;;;;;;2105160;28;20433;-71
2021/07/19 03:35:55;;;;;;;8.70;6.80;;;18.40;99.90;;;;;;2105277;28;20031;-71
2021/07/19 03:36:56;;;;;;;6.45;5.50;;;18.30;99.90;;;;;;2106088;28;20497;-71
2021/07/19 03:37:59;;;;;;;8.45;6.90;;;18.30;99.90;;;;;;2105836;28;20023;-71
2021/07/19 03:39:01;;;;;;;8.55;6.82;;;18.40;99.90;;;;;;2105093;28;20050;-71
2021/07/19 03:40:03;;;;;;;10.98;7.53;;;18.40;99.90;;;;;;2105224;28;20028;-71
2021/07/19 03:41:06;;;;;;;9.20;7.05;;;18.40;99.90;;;;;;2105260;28;20027;-71
2021/07/19 03:42:10;;;;;;;9.63;7.40;;;18.40;99.90;;;;;;2104785;28;20495;-71
2021/07/19 03:43:11;;;;;;;13.68;7.10;;;18.40;99.90;;;;;;2105286;28;20474;-71
2021/07/19 03:44:13;;;;;;;10.32;7.22;;;18.40;99.90;;;;;;2106020;28;20038;-71
2021/07/19 03:45:15;;;;;;;9.32;6.85;;;18.40;99.90;;;;;;2105126;28;20019;-71
2021/07/19 03:46:20;;;;;;;9.95;6.72;;;18.40;99.90;;;;;;2105034;28;20564;-71
2021/07/19 03:47:21;;;;;;;11.73;6.95;;;18.40;99.90;;;;;;2105943;28;20032;-71
2021/07/19 03:48:22;;;;;;;10.05;6.63;;;18.40;99.90;;;;;;2105040;28;20048;-71
2021/07/19 03:49:23;;;;;;;10.30;7.80;;;18.40;99.90;;;;;;2105137;28;20028;-71
2021/07/19 03:50:24;;;;;;;8.38;7.15;;;18.40;99.90;;;;;;2111989;28;20027;-71
2021/07/19 03:51:28;;;;;;;8.57;7.10;;;18.40;99.90;;;;;;2113428;28;20036;-71
2021/07/19 03:52:29;;;;;;;10.45;8.05;;;18.40;99.90;;;;;;2114060;28;20036;-71
2021/07/19 03:53:31;;;;;;;12.25;7.55;;;18.40;99.90;;;;;;2113175;28;20034;-71
2021/07/19 03:54:34;;;;;;;8.30;6.53;;;18.40;99.90;;;;;;2113432;28;20023;-71
2021/07/19 03:55:35;;;;;;;14.00;8.15;;;18.40;99.90;;;;;;2114066;28;20054;-71
2021/07/19 03:56:37;;;;;;;11.50;8.30;;;18.40;99.90;;;;;;2105809;28;20055;-71
2021/07/19 03:57:39;;;;;;;11.50;7.80;;;18.40;99.90;;;;;;2105923;28;20375;-71
2021/07/19 03:58:40;;;;;;;13.38;8.55;;;18.40;99.90;;;;;;2097836;28;20032;-71
2021/07/19 03:59:41;;;;;;;11.65;7.88;;;18.40;99.90;;;;;;2105606;28;20482;-71
2021/07/19 04:00:43;;;;;;;9.68;7.82;;;18.40;99.90;;;;;;2109994;28;20386;-71
2021/07/19 04:01:45;;;;;;;14.13;8.55;;;18.40;99.90;;;;;;2112038;28;20019;-71
2021/07/19 04:02:52;;;;;;;12.20;7.72;;;18.40;99.90;;;;;;2110907;28;20023;-71
2021/07/19 04:03:55;;;;;;;11.20;7.18;;;18.40;99.90;;;;;;2105279;28;20379;-71
2021/07/19 04:05:07;;;;;;;9.82;7.80;;;18.40;99.90;;;;;;2105633;28;20102;-71
2021/07/19 04:06:11;;;;;;;13.02;7.85;;;18.40;99.90;;;;;;2105854;28;20060;-71
2021/07/19 04:07:13;;;;;;;10.05;7.38;;;18.40;99.90;;;;;;2103346;28;20054;-71
2021/07/19 04:08:15;;;;;;;11.88;7.97;;;18.40;99.90;;;;;;2105164;28;20020;-71
2021/07/19 04:09:16;;;;;;;10.30;8.27;;;18.40;99.90;;;;;;2113231;28;20028;-71
2021/07/19 04:10:19;;;;;;;13.40;8.88;;;18.40;99.90;;;;;;2112737;28;20024;-71
2021/07/19 04:11:20;;;;;;;10.15;7.55;;;18.40;99.90;;;;;;2104964;28;20487;-71
2021/07/19 04:12:21;;;;;;;10.80;6.80;;;18.40;99.90;;;;;;2105768;28;20035;-71
2021/07/19 04:13:22;;;;;;;9.45;7.78;;;18.40;99.90;;;;;;2106376;28;20089;-71
2021/07/19 04:14:23;;;;;;;11.10;7.65;;;18.50;99.90;;;;;;2106766;28;20028;-71
2021/07/19 04:15:26;;;;;;;10.15;8.27;;;18.50;99.90;;;;;;2106608;28;20153;-71
2021/07/19 04:16:27;;;;;;;10.00;7.88;;;18.50;99.90;;;;;;2106602;28;20495;-71
2021/07/19 04:17:29;;;;;;;10.90;7.93;;;18.50;99.90;;;;;;2106737;28;20165;-71
2021/07/19 04:18:31;;;;;;;11.23;8.20;;;18.40;99.90;;;;;;2107686;28;20020;-71
2021/07/19 04:19:32;;;;;;;10.65;7.78;;;18.50;99.90;;;;;;2107143;28;20031;-71
2021/07/19 04:20:33;;;;;;;10.95;7.47;;;18.50;99.90;;;;;;2108984;28;20032;-71
2021/07/19 04:21:34;;;;;;;8.60;7.20;;;18.50;99.90;;;;;;2114839;28;20065;-71
2021/07/19 04:22:35;;;;;;;11.45;8.00;;;18.50;99.90;;;;;;2114738;28;20526;-71
2021/07/19 04:23:37;;;;;;;9.07;7.55;;;18.50;99.90;;;;;;2115895;28;20020;-71
2021/07/19 04:24:37;;;;;;;11.30;7.13;;;18.50;99.90;;;;;;2106359;28;20434;-71
2021/07/19 04:25:39;;;;;;;15.60;7.82;;;18.50;99.90;;;;;;2098319;28;20020;-71
2021/07/19 04:26:41;;;;;;;9.60;7.82;;;18.50;99.90;;;;;;2115055;28;20534;-71
2021/07/19 04:27:43;;;;;;;11.35;7.45;;;18.50;99.90;;;;;;2115043;28;20030;-71
2021/07/19 04:28:44;;;;;;;8.43;7.63;;;18.50;99.90;;;;;;2114964;28;20044;-71
2021/07/19 04:29:49;;;;;;;8.50;7.60;;;18.50;99.90;;;;;;2108831;28;20468;-71
2021/07/19 04:30:51;;;;;;;10.50;7.72;;;18.50;99.90;;;;;;2106913;28;20111;-71
2021/07/19 04:31:53;;;;;;;11.23;8.18;;;18.50;99.90;;;;;;2108445;28;20480;-71
2021/07/19 04:32:54;;;;;;;9.45;7.75;;;18.50;99.90;;;;;;2115186;28;20417;-71
2021/07/19 04:33:55;;;;;;;12.73;8.40;;;18.50;99.90;;;;;;2115086;28;20032;-71
2021/07/19 04:34:55;;;;;;;9.05;8.15;;;18.50;99.90;;;;;;2114915;28;20024;-71
2021/07/19 04:35:56;;;;;;;12.18;8.43;;;18.50;99.90;;;;;;2115809;28;20097;-71
2021/07/19 04:37:05;;;;;;;12.32;8.40;;;18.50;99.90;;;;;;2115668;28;20027;-71
2021/07/19 04:38:06;;;;;;;9.88;7.43;;;18.50;99.90;;;;;;2115974;27;20125;-71
2021/07/19 04:39:07;;;;;;;10.32;7.50;;;18.40;99.90;;;;;;2113319;28;20097;-71
2021/07/19 04:40:08;;;;;;;10.27;8.18;;;18.50;99.90;;;;;;2109694;28;20022;-71
2021/07/19 04:41:09;;;;;;;10.65;7.90;;;18.50;99.90;;;;;;2115388;28;20024;-71
2021/07/19 04:42:10;;;;;;;10.75;7.88;;;18.50;99.90;;;;;;2115727;28;20060;-71
2021/07/19 04:43:11;;;;;;;11.85;8.30;;;18.50;99.90;;;;;;2115111;28;20045;-71
2021/07/19 04:44:11;;;;;;;8.55;7.63;;;18.50;99.90;;;;;;2103349;28;20024;-71
2021/07/19 04:45:14;;;;;;;12.30;7.68;;;18.50;99.90;;;;;;2106355;28;20534;-71
2021/07/19 04:46:17;;;;;;;9.57;8.07;;;18.50;99.90;;;;;;2098204;28;20356;-71
2021/07/19 04:47:18;;;;;;;9.73;8.10;;;18.50;99.90;;;;;;2099497;28;20525;-71
2021/07/19 04:48:19;;;;;;;12.93;9.00;;;18.50;99.90;;;;;;2112009;28;20499;-71
2021/07/19 04:49:20;;;;;;;12.10;8.48;;;18.50;99.90;;;;;;2106203;28;20490;-71
2021/07/19 04:50:21;;;;;;;9.48;7.45;;;18.60;99.90;;;;;;2105690;28;20086;-71
2021/07/19 04:51:21;;;;;;;15.10;9.48;;;18.60;99.90;;;;;;2114530;28;20031;-71
2021/07/19 04:52:22;;;;;;;12.43;9.65;;;18.60;99.90;;;;;;2115566;28;20467;-71
2021/07/19 04:53:23;;;;;;;12.80;8.95;;;18.60;99.90;;;;;;2114424;28;20712;-71
2021/07/19 04:54:29;;;;;;;12.65;9.55;;;18.60;99.90;;;;;;2114846;28;20034;-71
2021/07/19 04:55:31;;;;;;;15.38;9.10;;;18.60;99.90;;;;;;2114886;28;20027;-71
2021/07/19 04:56:33;;;;;;;11.27;8.43;;;18.60;99.90;;;;;;2106494;28;20417;-71
2021/07/19 04:57:35;;;;;;;13.30;9.73;;;18.60;99.90;;;;;;2106564;28;20024;-71
2021/07/19 04:58:37;;;;;;;10.15;7.82;;;18.60;99.90;;;;;;2106369;28;20074;-71
2021/07/19 04:59:42;;;;;;;12.05;9.50;;;18.60;99.90;;;;;;2102133;28;20503;-71
2021/07/19 05:00:47;;;;;;;12.30;8.73;;;18.60;99.90;;;;;;2114906;28;20074;-71
2021/07/19 05:01:50;;;;;;;15.32;9.73;;;18.60;99.90;;;;;;2114529;28;20026;-71
2021/07/19 05:02:52;;;;;;;13.45;9.07;;;18.60;99.90;;;;;;2108468;28;20025;-71
2021/07/19 05:03:55;;;;;;;15.68;9.30;;;18.60;99.90;;;;;;2098662;28;20074;-71
2021/07/19 05:04:57;;;;;;;13.20;9.88;;;18.60;99.90;;;;;;2105455;28;20219;-71
2021/07/19 05:05:59;;;;;;;13.88;9.43;;;18.60;99.90;;;;;;2106929;28;20024;-71
2021/07/19 05:07:00;;;;;;;15.02;10.27;;;18.60;99.90;;;;;;2106403;28;20023;-71
2021/07/19 05:08:02;;;;;;;13.70;9.68;;;18.60;99.90;;;;;;2106027;28;20095;-71
2021/07/19 05:09:03;;;;;;;13.90;9.80;;;18.60;99.90;;;;;;2106038;28;20016;-71
2021/07/19 05:10:07;;;;;;;15.95;10.35;;;18.60;99.90;;;;;;2106154;28;20382;-71
2021/07/19 05:11:08;;;;;;;12.60;9.32;;;18.60;99.90;;;;;;2106091;28;20032;-71
2021/07/19 05:12:16;;;;;;;15.57;10.65;;;18.60;99.90;;;;;;2106073;28;20032;-71
2021/07/19 05:13:17;;;;;;;15.35;9.63;;;18.60;99.90;;;;;;2106797;28;20039;-71
2021/07/19 05:14:19;;;;;;;16.92;9.45;;;18.60;99.90;;;;;;2106163;28;20031;-71
2021/07/19 05:15:20;;;;;;;14.73;10.52;;;18.60;99.90;;;;;;2106197;28;20112;-71
2021/07/19 05:16:21;;;;;;;11.73;9.45;;;18.70;99.90;;;;;;2105887;28;20399;-71
2021/07/19 05:17:23;;;;;;;16.15;10.48;;;18.70;99.90;;;;;;2106944;28;20390;-71
2021/07/19 05:18:24;;;;;;;14.65;10.52;;;18.70;99.90;;;;;;2106287;28;20058;-71
2021/07/19 05:19:26;;;;;;;19.10;11.45;;;18.70;99.90;;;;;;2097874;28;20047;-71
2021/07/19 05:20:28;;;;;;;18.00;10.02;;;18.80;99.90;;;;;;2098906;28;20499;-71
2021/07/19 05:21:33;;;;;;;13.75;10.50;;;18.80;99.90;;;;;;2106093;28;20506;-71
2021/07/19 05:22:34;;;;;;;12.13;10.55;;;18.80;99.90;;;;;;2114426;28;20408;-71
2021/07/19 05:23:36;;;;;;;15.88;10.75;;;18.80;99.90;;;;;;2115112;28;20412;-71